sensor_id;sensor_type;location;lat;lon;timestamp;pressure;altitude;pressure_sealevel;temperature
71807;BMP280;59655;42.590;23.364;2024-01-30T00:02:08;93102.31;;;-1.12
71807;BMP280;59655;42.590;23.364;2024-01-30T00:04:33;93102.66;;;-1.10
71807;BMP280;59655;42.590;23.364;2024-01-30T00:06:58;93100.78;;;-1.10
71807;BMP280;59655;42.590;23.364;2024-01-30T00:09:24;93105.22;;;-1.23
71807;BMP280;59655;42.590;23.364;2024-01-30T00:11:49;93107.28;;;-1.47
71807;BMP280;59655;42.590;23.364;2024-01-30T00:14:14;93106.31;;;-1.53
71807;BMP280;59655;42.590;23.364;2024-01-30T00:16:39;93112.75;;;-1.58
71807;BMP280;59655;42.590;23.364;2024-01-30T00:19:05;93107.56;;;-1.74
71807;BMP280;59655;42.590;23.364;2024-01-30T00:21:30;93109.84;;;-1.77
71807;BMP280;59655;42.590;23.364;2024-01-30T00:23:55;93113.16;;;-1.76
71807;BMP280;59655;42.590;23.364;2024-01-30T00:26:21;93122.59;;;-1.82
71807;BMP280;59655;42.590;23.364;2024-01-30T00:28:46;93120.72;;;-1.82
71807;BMP280;59655;42.590;23.364;2024-01-30T00:31:11;93115.38;;;-1.74
71807;BMP280;59655;42.590;23.364;2024-01-30T00:33:38;93121.69;;;-1.43
71807;BMP280;59655;42.590;23.364;2024-01-30T00:36:05;93116.97;;;-1.31
71807;BMP280;59655;42.590;23.364;2024-01-30T00:38:31;93122.19;;;-1.31
71807;BMP280;59655;42.590;23.364;2024-01-30T00:40:56;93114.16;;;-1.24
71807;BMP280;59655;42.590;23.364;2024-01-30T00:43:21;93113.97;;;-1.46
71807;BMP280;59655;42.590;23.364;2024-01-30T00:45:47;93110.72;;;-1.50
71807;BMP280;59655;42.590;23.364;2024-01-30T00:48:12;93112.69;;;-1.71
71807;BMP280;59655;42.590;23.364;2024-01-30T00:50:37;93113.84;;;-1.72
71807;BMP280;59655;42.590;23.364;2024-01-30T00:53:03;93113.16;;;-1.76
71807;BMP280;59655;42.590;23.364;2024-01-30T00:55:28;93116.19;;;-1.78
71807;BMP280;59655;42.590;23.364;2024-01-30T00:57:53;93109.84;;;-1.77
71807;BMP280;59655;42.590;23.364;2024-01-30T01:00:19;93112.84;;;-1.78
71807;BMP280;59655;42.590;23.364;2024-01-30T01:02:46;93113.91;;;-1.75
71807;BMP280;59655;42.590;23.364;2024-01-30T01:05:11;93111.56;;;-1.70
71807;BMP280;59655;42.590;23.364;2024-01-30T01:07:36;93109.69;;;-1.69
71807;BMP280;59655;42.590;23.364;2024-01-30T01:10:02;93106.03;;;-1.72
71807;BMP280;59655;42.590;23.364;2024-01-30T01:12:27;93104.72;;;-1.80
71807;BMP280;59655;42.590;23.364;2024-01-30T01:14:53;93110.25;;;-1.62
71807;BMP280;59655;42.590;23.364;2024-01-30T01:17:18;93103.06;;;-1.58
71807;BMP280;59655;42.590;23.364;2024-01-30T01:19:44;93098.50;;;-1.53
71807;BMP280;59655;42.590;23.364;2024-01-30T01:22:09;93106.31;;;-1.53
71807;BMP280;59655;42.590;23.364;2024-01-30T01:24:35;93108.50;;;-1.52
71807;BMP280;59655;42.590;23.364;2024-01-30T01:27:01;93108.16;;;-1.83
71807;BMP280;59655;42.590;23.364;2024-01-30T01:29:26;93104.06;;;-2.01
71807;BMP280;59655;42.590;23.364;2024-01-30T01:31:55;93114.59;;;-1.91
71807;BMP280;59655;42.590;23.364;2024-01-30T01:34:21;93113.50;;;-1.74
71807;BMP280;59655;42.590;23.364;2024-01-30T01:36:46;93109.44;;;-2.08
71807;BMP280;59655;42.590;23.364;2024-01-30T01:39:12;93112.59;;;-2.00
71807;BMP280;59655;42.590;23.364;2024-01-30T01:41:37;93108.75;;;-1.96
71807;BMP280;59655;42.590;23.364;2024-01-30T01:44:03;93110.72;;;-2.00
71807;BMP280;59655;42.590;23.364;2024-01-30T01:46:30;93110.75;;;-1.83
71807;BMP280;59655;42.590;23.364;2024-01-30T01:48:56;93114.25;;;-1.73
71807;BMP280;59655;42.590;23.364;2024-01-30T01:51:23;93109.59;;;-1.66
71807;BMP280;59655;42.590;23.364;2024-01-30T01:53:50;93108.38;;;-1.61
71807;BMP280;59655;42.590;23.364;2024-01-30T01:56:16;93111.69;;;-1.61
71807;BMP280;59655;42.590;23.364;2024-01-30T01:58:41;93105.50;;;-1.50
71807;BMP280;59655;42.590;23.364;2024-01-30T02:01:08;93117.00;;;-1.64
71807;BMP280;59655;42.590;23.364;2024-01-30T02:03:34;93105.81;;;-1.48
71807;BMP280;59655;42.590;23.364;2024-01-30T02:05:59;93113.78;;;-1.39
71807;BMP280;59655;42.590;23.364;2024-01-30T02:08:25;93115.72;;;-1.43
71807;BMP280;59655;42.590;23.364;2024-01-30T02:10:51;93113.22;;;-1.47
71807;BMP280;59655;42.590;23.364;2024-01-30T02:13:16;93113.41;;;-1.54
71807;BMP280;59655;42.590;23.364;2024-01-30T02:15:42;93107.28;;;-1.47
71807;BMP280;59655;42.590;23.364;2024-01-30T02:18:07;93118.31;;;-1.43
71807;BMP280;59655;42.590;23.364;2024-01-30T02:20:35;93099.88;;;-1.32
71807;BMP280;59655;42.590;23.364;2024-01-30T02:23:00;93111.75;;;-1.31
71807;BMP280;59655;42.590;23.364;2024-01-30T02:25:35;93104.28;;;-1.29
71807;BMP280;59655;42.590;23.364;2024-01-30T02:28:00;93112.22;;;-1.37
71807;BMP280;59655;42.590;23.364;2024-01-30T02:30:25;93113.22;;;-1.30
71807;BMP280;59655;42.590;23.364;2024-01-30T02:32:51;93101.75;;;-1.49
71807;BMP280;59655;42.590;23.364;2024-01-30T02:35:16;93112.75;;;-1.58
71807;BMP280;59655;42.590;23.364;2024-01-30T02:37:42;93105.47;;;-1.80
71807;BMP280;59655;42.590;23.364;2024-01-30T02:40:07;93107.97;;;-1.60
71807;BMP280;59655;42.590;23.364;2024-01-30T02:42:33;93105.31;;;-1.43
71807;BMP280;59655;42.590;23.364;2024-01-30T02:44:58;93114.09;;;-1.37
71807;BMP280;59655;42.590;23.364;2024-01-30T02:47:23;93108.41;;;-1.32
71807;BMP280;59655;42.590;23.364;2024-01-30T02:49:48;93108.97;;;-1.24
71807;BMP280;59655;42.590;23.364;2024-01-30T02:52:14;93114.16;;;-1.24
71807;BMP280;59655;42.590;23.364;2024-01-30T02:54:39;93112.63;;;-1.22
71807;BMP280;59655;42.590;23.364;2024-01-30T02:57:04;93114.78;;;-1.33
71807;BMP280;59655;42.590;23.364;2024-01-30T02:59:30;93108.69;;;-1.59
71807;BMP280;59655;42.590;23.364;2024-01-30T03:01:58;93114.81;;;-1.66
71807;BMP280;59655;42.590;23.364;2024-01-30T03:04:23;93111.06;;;-1.81
71807;BMP280;59655;42.590;23.364;2024-01-30T03:06:49;93113.31;;;-1.67
71807;BMP280;59655;42.590;23.364;2024-01-30T03:09:16;93104.69;;;-1.47
71807;BMP280;59655;42.590;23.364;2024-01-30T03:11:41;93101.03;;;-1.50
71807;BMP280;59655;42.590;23.364;2024-01-30T03:14:07;93101.47;;;-1.68
71807;BMP280;59655;42.590;23.364;2024-01-30T03:16:33;93106.28;;;-1.83
71807;BMP280;59655;42.590;23.364;2024-01-30T03:18:58;93104.97;;;-1.74
71807;BMP280;59655;42.590;23.364;2024-01-30T03:21:23;93107.13;;;-1.57
71807;BMP280;59655;42.590;23.364;2024-01-30T03:23:49;93106.06;;;-1.43
71807;BMP280;59655;42.590;23.364;2024-01-30T03:26:14;93098.50;;;-1.37
71807;BMP280;59655;42.590;23.364;2024-01-30T03:28:40;93097.81;;;-1.41
71807;BMP280;59655;42.590;23.364;2024-01-30T03:31:06;93093.84;;;-1.29
71807;BMP280;59655;42.590;23.364;2024-01-30T03:33:31;93094.06;;;-1.24
71807;BMP280;59655;42.590;23.364;2024-01-30T03:35:57;93090.72;;;-1.24
71807;BMP280;59655;42.590;23.364;2024-01-30T03:38:22;93096.56;;;-1.33
71807;BMP280;59655;42.590;23.364;2024-01-30T03:40:47;93097.69;;;-1.50
71807;BMP280;59655;42.590;23.364;2024-01-30T03:43:13;93086.59;;;-1.38
71807;BMP280;59655;42.590;23.364;2024-01-30T03:45:38;93095.63;;;-1.26
71807;BMP280;59655;42.590;23.364;2024-01-30T03:48:04;93094.72;;;-1.20
71807;BMP280;59655;42.590;23.364;2024-01-30T03:50:29;93086.06;;;-1.16
71807;BMP280;59655;42.590;23.364;2024-01-30T03:52:54;93084.09;;;-1.12
71807;BMP280;59655;42.590;23.364;2024-01-30T03:55:20;93077.03;;;-1.12
71807;BMP280;59655;42.590;23.364;2024-01-30T03:57:45;93079.16;;;-1.52
71807;BMP280;59655;42.590;23.364;2024-01-30T04:00:11;93075.66;;;-1.46
71807;BMP280;59655;42.590;23.364;2024-01-30T04:02:36;93089.28;;;-1.25
71807;BMP280;59655;42.590;23.364;2024-01-30T04:05:02;93084.81;;;-1.25
71807;BMP280;59655;42.590;23.364;2024-01-30T04:07:27;93084.41;;;-1.23
71807;BMP280;59655;42.590;23.364;2024-01-30T04:09:52;93089.09;;;-1.18
71807;BMP280;59655;42.590;23.364;2024-01-30T04:12:18;93083.75;;;-1.27
71807;BMP280;59655;42.590;23.364;2024-01-30T04:14:43;93085.53;;;-1.24
71807;BMP280;59655;42.590;23.364;2024-01-30T04:17:09;93073.78;;;-1.16
71807;BMP280;59655;42.590;23.364;2024-01-30T04:19:37;93082.97;;;-1.11
71807;BMP280;59655;42.590;23.364;2024-01-30T04:22:03;93082.25;;;-1.12
71807;BMP280;59655;42.590;23.364;2024-01-30T04:24:28;93084.81;;;-1.25
71807;BMP280;59655;42.590;23.364;2024-01-30T04:26:53;93097.09;;;-1.25
71807;BMP280;59655;42.590;23.364;2024-01-30T04:29:19;93091.47;;;-1.24
71807;BMP280;59655;42.590;23.364;2024-01-30T04:31:45;93090.19;;;-1.32
71807;BMP280;59655;42.590;23.364;2024-01-30T04:34:10;93089.88;;;-1.34
71807;BMP280;59655;42.590;23.364;2024-01-30T04:36:35;93096.06;;;-1.44
71807;BMP280;59655;42.590;23.364;2024-01-30T04:39:01;93098.84;;;-1.35
71807;BMP280;59655;42.590;23.364;2024-01-30T04:41:26;93098.94;;;-1.26
71807;BMP280;59655;42.590;23.364;2024-01-30T04:43:56;93091.81;;;-1.38
71807;BMP280;59655;42.590;23.364;2024-01-30T04:46:21;93099.78;;;-1.45
71807;BMP280;59655;42.590;23.364;2024-01-30T04:48:47;93097.75;;;-1.38
71807;BMP280;59655;42.590;23.364;2024-01-30T04:51:12;93100.63;;;-1.48
71807;BMP280;59655;42.590;23.364;2024-01-30T04:53:37;93100.88;;;-1.43
71807;BMP280;59655;42.590;23.364;2024-01-30T04:56:05;93101.50;;;-1.39
71807;BMP280;59655;42.590;23.364;2024-01-30T04:58:30;93103.88;;;-1.44
71807;BMP280;59655;42.590;23.364;2024-01-30T05:00:56;93101.84;;;-1.53
71807;BMP280;59655;42.590;23.364;2024-01-30T05:03:21;93109.84;;;-1.60
71807;BMP280;59655;42.590;23.364;2024-01-30T05:05:48;93107.72;;;-1.65
71807;BMP280;59655;42.590;23.364;2024-01-30T05:08:13;93107.72;;;-1.65
71807;BMP280;59655;42.590;23.364;2024-01-30T05:10:38;93104.56;;;-1.73
71807;BMP280;59655;42.590;23.364;2024-01-30T05:13:04;93111.69;;;-1.61
71807;BMP280;59655;42.590;23.364;2024-01-30T05:15:29;93113.56;;;-1.45
71807;BMP280;59655;42.590;23.364;2024-01-30T05:17:54;93112.94;;;-1.36
71807;BMP280;59655;42.590;23.364;2024-01-30T05:20:20;93112.56;;;-1.34
71807;BMP280;59655;42.590;23.364;2024-01-30T05:22:45;93119.72;;;-1.39
71807;BMP280;59655;42.590;23.364;2024-01-30T05:25:12;93121.09;;;-1.34
71807;BMP280;59655;42.590;23.364;2024-01-30T05:27:38;93114.03;;;-1.33
71807;BMP280;59655;42.590;23.364;2024-01-30T05:30:05;93114.84;;;-1.37
71807;BMP280;59655;42.590;23.364;2024-01-30T05:32:31;93119.13;;;-1.30
71807;BMP280;59655;42.590;23.364;2024-01-30T05:34:56;93130.78;;;-1.34
71807;BMP280;59655;42.590;23.364;2024-01-30T05:37:22;93125.81;;;-1.29
71807;BMP280;59655;42.590;23.364;2024-01-30T05:39:47;93119.88;;;-1.29
71807;BMP280;59655;42.590;23.364;2024-01-30T05:42:12;93116.84;;;-1.28
71807;BMP280;59655;42.590;23.364;2024-01-30T05:44:38;93130.19;;;-1.26
71807;BMP280;59655;42.590;23.364;2024-01-30T05:47:03;93132.59;;;-1.31
71807;BMP280;59655;42.590;23.364;2024-01-30T05:49:29;93123.53;;;-1.27
71807;BMP280;59655;42.590;23.364;2024-01-30T05:51:54;93127.50;;;-1.22
71807;BMP280;59655;42.590;23.364;2024-01-30T05:54:19;93126.38;;;-1.21
71807;BMP280;59655;42.590;23.364;2024-01-30T05:56:44;93127.09;;;-1.21
71807;BMP280;59655;42.590;23.364;2024-01-30T05:59:10;93122.19;;;-1.19
71807;BMP280;59655;42.590;23.364;2024-01-30T06:01:35;93135.22;;;-1.19
71807;BMP280;59655;42.590;23.364;2024-01-30T06:04:01;93118.28;;;-1.10
71807;BMP280;59655;42.590;23.364;2024-01-30T06:06:26;93128.75;;;-1.27
71807;BMP280;59655;42.590;23.364;2024-01-30T06:08:52;93135.84;;;-1.14
71807;BMP280;59655;42.590;23.364;2024-01-30T06:11:20;93120.88;;;-1.10
71807;BMP280;59655;42.590;23.364;2024-01-30T06:13:45;93123.44;;;-1.23
71807;BMP280;59655;42.590;23.364;2024-01-30T06:16:12;93131.72;;;-1.12
71807;BMP280;59655;42.590;23.364;2024-01-30T06:18:37;93133.56;;;-1.12
71807;BMP280;59655;42.590;23.364;2024-01-30T06:21:04;93132.03;;;-1.10
71807;BMP280;59655;42.590;23.364;2024-01-30T06:23:29;93133.56;;;-1.12
71807;BMP280;59655;42.590;23.364;2024-01-30T06:25:55;93127.56;;;-1.09
71807;BMP280;59655;42.590;23.364;2024-01-30T06:28:20;93127.31;;;-1.15
71807;BMP280;59655;42.590;23.364;2024-01-30T06:30:45;93126.41;;;-1.08
71807;BMP280;59655;42.590;23.364;2024-01-30T06:33:14;93129.66;;;-1.04
71807;BMP280;59655;42.590;23.364;2024-01-30T06:35:40;93134.13;;;-1.05
71807;BMP280;59655;42.590;23.364;2024-01-30T06:38:06;93131.75;;;-0.99
71807;BMP280;59655;42.590;23.364;2024-01-30T06:40:31;93143.72;;;-1.02
71807;BMP280;59655;42.590;23.364;2024-01-30T06:42:57;93134.34;;;-0.99
71807;BMP280;59655;42.590;23.364;2024-01-30T06:45:22;93143.75;;;-1.18
71807;BMP280;59655;42.590;23.364;2024-01-30T06:47:48;93138.59;;;-1.05
71807;BMP280;59655;42.590;23.364;2024-01-30T06:50:13;93142.06;;;-0.95
71807;BMP280;59655;42.590;23.364;2024-01-30T06:52:38;93150.28;;;-0.97
71807;BMP280;59655;42.590;23.364;2024-01-30T06:55:04;93142.56;;;-1.01
71807;BMP280;59655;42.590;23.364;2024-01-30T06:57:29;93148.94;;;-1.02
71807;BMP280;59655;42.590;23.364;2024-01-30T06:59:55;93143.91;;;-1.09
71807;BMP280;59655;42.590;23.364;2024-01-30T07:02:21;93146.41;;;-1.05
71807;BMP280;59655;42.590;23.364;2024-01-30T07:04:46;93151.84;;;-1.00
71807;BMP280;59655;42.590;23.364;2024-01-30T07:07:12;93143.53;;;-0.94
71807;BMP280;59655;42.590;23.364;2024-01-30T07:09:38;93153.03;;;-0.88
71807;BMP280;59655;42.590;23.364;2024-01-30T07:12:04;93142.25;;;-1.03
71807;BMP280;59655;42.590;23.364;2024-01-30T07:14:29;93139.34;;;-1.05
71807;BMP280;59655;42.590;23.364;2024-01-30T07:16:55;93153.00;;;-1.01
71807;BMP280;59655;42.590;23.364;2024-01-30T07:19:20;93146.03;;;-1.20
71807;BMP280;59655;42.590;23.364;2024-01-30T07:21:46;93146.47;;;-1.22
71807;BMP280;59655;42.590;23.364;2024-01-30T07:24:11;93148.78;;;-1.11
71807;BMP280;59655;42.590;23.364;2024-01-30T07:26:37;93151.88;;;-1.16
71807;BMP280;59655;42.590;23.364;2024-01-30T07:29:02;93155.03;;;-1.08
71807;BMP280;59655;42.590;23.364;2024-01-30T07:31:28;93155.16;;;-1.12
71807;BMP280;59655;42.590;23.364;2024-01-30T07:33:54;93140.56;;;-1.09
71807;BMP280;59655;42.590;23.364;2024-01-30T07:36:20;93146.66;;;-1.00
71807;BMP280;59655;42.590;23.364;2024-01-30T07:38:45;93144.03;;;-1.00
71807;BMP280;59655;42.590;23.364;2024-01-30T07:41:10;93148.66;;;-0.91
71807;BMP280;59655;42.590;23.364;2024-01-30T07:43:36;93141.44;;;-1.00
71807;BMP280;59655;42.590;23.364;2024-01-30T07:46:01;93143.81;;;-1.05
71807;BMP280;59655;42.590;23.364;2024-01-30T07:48:28;93140.81;;;-1.33
71807;BMP280;59655;42.590;23.364;2024-01-30T07:50:53;93139.66;;;-1.32
71807;BMP280;59655;42.590;23.364;2024-01-30T07:53:18;93146.78;;;-1.20
71807;BMP280;59655;42.590;23.364;2024-01-30T07:55:44;93140.66;;;-1.13
71807;BMP280;59655;42.590;23.364;2024-01-30T07:58:12;93150.38;;;-1.01
71807;BMP280;59655;42.590;23.364;2024-01-30T08:00:37;93150.50;;;-1.04
71807;BMP280;59655;42.590;23.364;2024-01-30T08:03:03;93152.91;;;-0.97
71807;BMP280;59655;42.590;23.364;2024-01-30T08:05:29;93145.22;;;-0.88
71807;BMP280;59655;42.590;23.364;2024-01-30T08:07:57;93138.75;;;-0.83
71807;BMP280;59655;42.590;23.364;2024-01-30T08:10:22;93145.13;;;-0.84
71807;BMP280;59655;42.590;23.364;2024-01-30T08:12:48;93141.91;;;-0.75
71807;BMP280;59655;42.590;23.364;2024-01-30T08:15:13;93137.84;;;-0.76
71807;BMP280;59655;42.590;23.364;2024-01-30T08:17:40;93140.38;;;-0.73
71807;BMP280;59655;42.590;23.364;2024-01-30T08:20:06;93138.50;;;-0.72
71807;BMP280;59655;42.590;23.364;2024-01-30T08:22:33;93140.28;;;-0.69
71807;BMP280;59655;42.590;23.364;2024-01-30T08:24:58;93134.31;;;-0.70
71807;BMP280;59655;42.590;23.364;2024-01-30T08:27:24;93135.78;;;-0.69
71807;BMP280;59655;42.590;23.364;2024-01-30T08:29:49;93137.69;;;-0.69
71807;BMP280;59655;42.590;23.364;2024-01-30T08:32:15;93143.09;;;-0.64
71807;BMP280;59655;42.590;23.364;2024-01-30T08:34:41;93142.56;;;-0.59
71807;BMP280;59655;42.590;23.364;2024-01-30T08:37:06;93146.97;;;-0.55
71807;BMP280;59655;42.590;23.364;2024-01-30T08:39:32;93150.31;;;-0.55
71807;BMP280;59655;42.590;23.364;2024-01-30T08:41:57;93145.22;;;-0.46
71807;BMP280;59655;42.590;23.364;2024-01-30T08:44:23;93147.91;;;-0.49
71807;BMP280;59655;42.590;23.364;2024-01-30T08:46:48;93148.94;;;-0.47
71807;BMP280;59655;42.590;23.364;2024-01-30T08:49:16;93149.69;;;-0.46
71807;BMP280;59655;42.590;23.364;2024-01-30T08:51:42;93155.81;;;-0.53
71807;BMP280;59655;42.590;23.364;2024-01-30T08:54:07;93153.94;;;-0.65
71807;BMP280;59655;42.590;23.364;2024-01-30T08:56:32;93145.72;;;-0.51
71807;BMP280;59655;42.590;23.364;2024-01-30T08:58:58;93150.44;;;-0.46
71807;BMP280;59655;42.590;23.364;2024-01-30T09:01:24;93155.84;;;-0.40
71807;BMP280;59655;42.590;23.364;2024-01-30T09:03:50;93156.47;;;-0.36
71807;BMP280;59655;42.590;23.364;2024-01-30T09:06:15;93153.59;;;-0.25
71807;BMP280;59655;42.590;23.364;2024-01-30T09:08:41;93150.25;;;-0.26
71807;BMP280;59655;42.590;23.364;2024-01-30T09:11:10;93156.31;;;-0.16
71807;BMP280;59655;42.590;23.364;2024-01-30T09:13:36;93149.09;;;-0.12
71807;BMP280;59655;42.590;23.364;2024-01-30T09:16:01;93137.63;;;-0.14
71807;BMP280;59655;42.590;23.364;2024-01-30T09:18:26;93150.28;;;-0.13
71807;BMP280;59655;42.590;23.364;2024-01-30T09:20:52;93136.19;;;-0.28
71807;BMP280;59655;42.590;23.364;2024-01-30T09:23:18;93140.22;;;-0.27
71807;BMP280;59655;42.590;23.364;2024-01-30T09:25:44;93135.34;;;-0.25
71807;BMP280;59655;42.590;23.364;2024-01-30T09:28:10;93141.06;;;-0.17
71807;BMP280;59655;42.590;23.364;2024-01-30T09:30:35;93137.75;;;-0.18
71807;BMP280;59655;42.590;23.364;2024-01-30T09:33:00;93136.38;;;-0.10
71807;BMP280;59655;42.590;23.364;2024-01-30T09:35:26;93139.50;;;-0.02
71807;BMP280;59655;42.590;23.364;2024-01-30T09:37:51;93138.56;;;0.05
71807;BMP280;59655;42.590;23.364;2024-01-30T09:40:17;93137.97;;;0.01
71807;BMP280;59655;42.590;23.364;2024-01-30T09:42:46;93134.94;;;0.02
71807;BMP280;59655;42.590;23.364;2024-01-30T09:45:14;93132.72;;;0.13
71807;BMP280;59655;42.590;23.364;2024-01-30T09:47:41;93131.16;;;0.16
71807;BMP280;59655;42.590;23.364;2024-01-30T09:50:13;93131.56;;;0.27
71807;BMP280;59655;42.590;23.364;2024-01-30T09:52:39;93123.78;;;0.36
71807;BMP280;59655;42.590;23.364;2024-01-30T09:55:06;93136.09;;;0.36
71807;BMP280;59655;42.590;23.364;2024-01-30T09:57:32;93132.84;;;0.10
71807;BMP280;59655;42.590;23.364;2024-01-30T09:59:57;93131.69;;;0.11
71807;BMP280;59655;42.590;23.364;2024-01-30T10:02:23;93130.00;;;0.17
71807;BMP280;59655;42.590;23.364;2024-01-30T10:04:50;93118.13;;;0.16
71807;BMP280;59655;42.590;23.364;2024-01-30T10:07:15;93115.25;;;0.23
71807;BMP280;59655;42.590;23.364;2024-01-30T10:09:41;93126.38;;;0.36
71807;BMP280;59655;42.590;23.364;2024-01-30T10:12:07;93118.13;;;0.38
71807;BMP280;59655;42.590;23.364;2024-01-30T10:14:34;93116.44;;;0.44
71807;BMP280;59655;42.590;23.364;2024-01-30T10:17:01;93118.03;;;0.42
71807;BMP280;59655;42.590;23.364;2024-01-30T10:19:26;93111.78;;;0.39
71807;BMP280;59655;42.590;23.364;2024-01-30T10:21:52;93109.41;;;0.54
71807;BMP280;59655;42.590;23.364;2024-01-30T10:24:17;93109.50;;;0.63
71807;BMP280;59655;42.590;23.364;2024-01-30T10:26:46;93106.88;;;0.63
71807;BMP280;59655;42.590;23.364;2024-01-30T10:29:12;93112.19;;;0.72
71807;BMP280;59655;42.590;23.364;2024-01-30T10:31:37;93112.38;;;0.78
71807;BMP280;59655;42.590;23.364;2024-01-30T10:34:02;93116.88;;;0.77
71807;BMP280;59655;42.590;23.364;2024-01-30T10:36:28;93115.41;;;0.76
71807;BMP280;59655;42.590;23.364;2024-01-30T10:38:58;93116.63;;;0.85
71807;BMP280;59655;42.590;23.364;2024-01-30T10:41:26;93113.47;;;0.90
71807;BMP280;59655;42.590;23.364;2024-01-30T10:44:03;93116.50;;;0.88
71807;BMP280;59655;42.590;23.364;2024-01-30T10:46:33;93112.25;;;0.82
71807;BMP280;59655;42.590;23.364;2024-01-30T10:49:00;93109.59;;;0.94
71807;BMP280;59655;42.590;23.364;2024-01-30T10:51:28;93117.00;;;0.96
71807;BMP280;59655;42.590;23.364;2024-01-30T10:53:55;93101.31;;;0.96
71807;BMP280;59655;42.590;23.364;2024-01-30T10:56:21;93107.34;;;1.06
71807;BMP280;59655;42.590;23.364;2024-01-30T10:58:49;93105.03;;;1.08
71807;BMP280;59655;42.590;23.364;2024-01-30T11:01:15;93102.06;;;1.18
71807;BMP280;59655;42.590;23.364;2024-01-30T11:03:41;93102.78;;;1.19
71807;BMP280;59655;42.590;23.364;2024-01-30T11:06:10;93100.69;;;1.14
71807;BMP280;59655;42.590;23.364;2024-01-30T11:08:36;93095.31;;;1.08
71807;BMP280;59655;42.590;23.364;2024-01-30T11:11:01;93097.94;;;1.08
71807;BMP280;59655;42.590;23.364;2024-01-30T11:13:29;93093.31;;;1.12
71807;BMP280;59655;42.590;23.364;2024-01-30T11:15:55;93097.25;;;1.17
71807;BMP280;59655;42.590;23.364;2024-01-30T11:18:29;93094.09;;;1.22
71807;BMP280;59655;42.590;23.364;2024-01-30T11:20:58;93096.69;;;1.22
71807;BMP280;59655;42.590;23.364;2024-01-30T11:23:26;93086.97;;;1.23
71807;BMP280;59655;42.590;23.364;2024-01-30T11:25:52;93090.78;;;1.31
71807;BMP280;59655;42.590;23.364;2024-01-30T11:28:17;93096.59;;;1.26
71807;BMP280;59655;42.590;23.364;2024-01-30T11:30:44;93093.03;;;1.19
71807;BMP280;59655;42.590;23.364;2024-01-30T11:33:11;93091.91;;;0.98
71807;BMP280;59655;42.590;23.364;2024-01-30T11:35:38;93099.44;;;0.74
71807;BMP280;59655;42.590;23.364;2024-01-30T11:38:11;93094.88;;;1.10
71807;BMP280;59655;42.590;23.364;2024-01-30T11:40:39;93094.22;;;1.18
71807;BMP280;59655;42.590;23.364;2024-01-30T11:43:06;93095.34;;;1.17
71807;BMP280;59655;42.590;23.364;2024-01-30T11:45:32;93095.97;;;1.22
71807;BMP280;59655;42.590;23.364;2024-01-30T11:47:58;93089.91;;;1.03
71807;BMP280;59655;42.590;23.364;2024-01-30T11:50:29;93092.75;;;1.17
71807;BMP280;59655;42.590;23.364;2024-01-30T11:52:55;93086.31;;;1.09
71807;BMP280;59655;42.590;23.364;2024-01-30T11:55:20;93081.16;;;1.18
71807;BMP280;59655;42.590;23.364;2024-01-30T11:57:46;93086.38;;;1.18
71807;BMP280;59655;42.590;23.364;2024-01-30T12:00:17;93072.28;;;1.16
71807;BMP280;59655;42.590;23.364;2024-01-30T12:02:53;93070.09;;;1.14
71807;BMP280;59655;42.590;23.364;2024-01-30T12:05:23;93068.66;;;1.23
71807;BMP280;59655;42.590;23.364;2024-01-30T12:07:48;93072.00;;;1.23
71807;BMP280;59655;42.590;23.364;2024-01-30T12:10:14;93064.91;;;1.24
71807;BMP280;59655;42.590;23.364;2024-01-30T12:12:41;93051.09;;;1.23
71807;BMP280;59655;42.590;23.364;2024-01-30T12:15:08;93052.44;;;1.28
71807;BMP280;59655;42.590;23.364;2024-01-30T12:17:34;93046.34;;;1.31
71807;BMP280;59655;42.590;23.364;2024-01-30T12:22:42;93046.63;;;1.24
71807;BMP280;59655;42.590;23.364;2024-01-30T12:25:12;93041.50;;;1.20
71807;BMP280;59655;42.590;23.364;2024-01-30T12:27:38;93040.22;;;1.25
71807;BMP280;59655;42.590;23.364;2024-01-30T12:30:11;93044.13;;;1.20
71807;BMP280;59655;42.590;23.364;2024-01-30T12:32:44;93041.38;;;1.24
71807;BMP280;59655;42.590;23.364;2024-01-30T12:35:14;93034.53;;;1.17
71807;BMP280;59655;42.590;23.364;2024-01-30T12:37:40;93031.19;;;1.16
71807;BMP280;59655;42.590;23.364;2024-01-30T12:40:07;93023.84;;;1.02
71807;BMP280;59655;42.590;23.364;2024-01-30T12:42:32;93024.59;;;1.12
71807;BMP280;59655;42.590;23.364;2024-01-30T12:44:58;93018.59;;;1.24
71807;BMP280;59655;42.590;23.364;2024-01-30T12:47:26;93027.16;;;1.25
71807;BMP280;59655;42.590;23.364;2024-01-30T12:49:52;93022.81;;;1.31
71807;BMP280;59655;42.590;23.364;2024-01-30T12:52:19;93014.53;;;1.32
71807;BMP280;59655;42.590;23.364;2024-01-30T12:54:44;93018.91;;;1.35
71807;BMP280;59655;42.590;23.364;2024-01-30T12:57:10;93015.41;;;1.38
71807;BMP280;59655;42.590;23.364;2024-01-30T12:59:35;93015.69;;;1.41
71807;BMP280;59655;42.590;23.364;2024-01-30T13:02:01;93017.75;;;1.46
71807;BMP280;59655;42.590;23.364;2024-01-30T13:04:28;93011.69;;;1.49
71807;BMP280;59655;42.590;23.364;2024-01-30T13:06:54;93016.75;;;1.52
71807;BMP280;59655;42.590;23.364;2024-01-30T13:09:19;93010.63;;;1.46
71807;BMP280;59655;42.590;23.364;2024-01-30T13:11:45;93008.75;;;1.47
71807;BMP280;59655;42.590;23.364;2024-01-30T13:14:10;93006.13;;;1.47
71807;BMP280;59655;42.590;23.364;2024-01-30T13:16:36;93002.38;;;1.48
71807;BMP280;59655;42.590;23.364;2024-01-30T13:19:02;93005.41;;;1.46
71807;BMP280;59655;42.590;23.364;2024-01-30T13:21:28;92996.28;;;1.51
71807;BMP280;59655;42.590;23.364;2024-01-30T13:23:53;92985.66;;;1.54
71807;BMP280;59655;42.590;23.364;2024-01-30T13:26:20;92993.50;;;1.54
71807;BMP280;59655;42.590;23.364;2024-01-30T13:28:46;92991.94;;;1.57
71807;BMP280;59655;42.590;23.364;2024-01-30T13:31:12;92991.50;;;1.58
71807;BMP280;59655;42.590;23.364;2024-01-30T13:33:37;92985.84;;;1.51
71807;BMP280;59655;42.590;23.364;2024-01-30T13:36:03;92989.72;;;1.46
71807;BMP280;59655;42.590;23.364;2024-01-30T13:38:28;93001.81;;;1.53
71807;BMP280;59655;42.590;23.364;2024-01-30T13:40:53;92992.06;;;1.53
71807;BMP280;59655;42.590;23.364;2024-01-30T13:43:19;92997.00;;;1.51
71807;BMP280;59655;42.590;23.364;2024-01-30T13:45:45;92993.84;;;1.56
71807;BMP280;59655;42.590;23.364;2024-01-30T13:48:11;92996.75;;;1.58
71807;BMP280;59655;42.590;23.364;2024-01-30T13:50:36;92995.88;;;1.62
71807;BMP280;59655;42.590;23.364;2024-01-30T13:53:03;93000.25;;;1.65
71807;BMP280;59655;42.590;23.364;2024-01-30T13:55:29;92995.59;;;1.69